Ahwahnee, California
Current Conditions -  °F | °C
As of 12:53 PM on Saturday 25 Oct 2014 (Local Time) from KMAE Reporting Station
Scattered Clouds Scattered Clouds  
Wind Chill: 76°   Ceiling: Unl
Heat Index: 76°   Visibility: 10mi
Dew Point: 45°   Wind: 12mph
Humidity: 33%   Direction: 270°W
Pressure: 30.06"   Gusts: NA
Location:  37.37°N, 119.73°W
Report Text: KMAE 251953Z AUTO 27010KT 10SM SCT090 24/07 A3006 RMK AO2 SLP176 T02440072
Loading
Personal Weather Stations






























Interactive Weather Map
Tropical Storm Tracking
New forecast layout! Learn more

10-Day Weather Forecast

Advertisements
Track Severe Weather on mobile